Theresa Jiangsu — VRKB3 — position and weather

sailwx.info

Track history (hours):
 
Tides and Currents Weather Stations Pressure Air Temp Water Temp Dewpoint Dewpoint Depression Visibility Wind Speed Wind Dir Waves Ship Positions

Theresa Jiangsu

Last reported at 2017-Oct-26 01:24 UTC. Time now 2017-Dec-18 03:26 UTC.
Position N 21°60' E 114°21'.
Warning: this ship's position is 53 days out of date.

Length 229 m; draft 12.8 m.

Type: Cargo ship. MMSI: 477792300.

Date/timePositionNaut miles runAvg speedWind from/ knotsBaromVisibWave heightAir tempDewpointWater temp
2017-Oct-26 01:24N 21°60' E 114°21'511.7
2017-Oct-26 00:58N 22°05' E 114°21'8 0.4
2017-Oct-25 07:18N 22°08' E 114°13'511.3
2017-Oct-25 06:51N 22°08' E 114°19'412.4
2017-Oct-25 06:30N 22°08' E 114°24'612.2
2017-Oct-25 06:00N 22°07' E 114°30'612.2
2017-Oct-25 05:30N 22°08' E 114°37'612.2
2017-Oct-25 05:00N 22°08' E 114°43'612.3
2017-Oct-25 04:30N 22°07' E 114°50'612.3
2017-Oct-25 04:00N 22°07' E 114°57'21811.4
2017-Oct-24 08:55N 23°54' E 118°22'712.8
2017-Oct-24 08:20N 23°59' E 118°28'413.1
2017-Oct-24 08:00N 24°02' E 118°32'  
Track history (hours):
 
Tides and Currents Weather Stations Pressure Air Temp Water Temp Dewpoint Dewpoint Depression Visibility Wind Speed Wind Dir Waves Ship Positions

Theresa Jiangsu

Last reported at 2017-Oct-26 01:24 UTC. Time now 2017-Dec-18 03:26 UTC.
Position N 21°60' E 114°21'.
Warning: this ship's position is 53 days out of date.

Length 229 m; draft 12.8 m.

Type: Cargo ship. MMSI: 477792300.

Date/timePositionNaut miles runAvg speedWind from/ knotsBaromVisibWave heightAir tempDewpointWater temp
2017-Oct-26 01:24N 21°60' E 114°21'511.7
2017-Oct-26 00:58N 22°05' E 114°21'8 0.4
2017-Oct-25 07:18N 22°08' E 114°13'511.3
2017-Oct-25 06:51N 22°08' E 114°19'412.4
2017-Oct-25 06:30N 22°08' E 114°24'612.2
2017-Oct-25 06:00N 22°07' E 114°30'612.2
2017-Oct-25 05:30N 22°08' E 114°37'612.2
2017-Oct-25 05:00N 22°08' E 114°43'612.3
2017-Oct-25 04:30N 22°07' E 114°50'612.3
2017-Oct-25 04:00N 22°07' E 114°57'21811.4
2017-Oct-24 08:55N 23°54' E 118°22'712.8
2017-Oct-24 08:20N 23°59' E 118°28'413.1
2017-Oct-24 08:00N 24°02' E 118°32'  

Dump ship's entire track history